sensor_id;sensor_type;location;lat;lon;timestamp;temperature;humidity
46490;DHT22;32204;49.160;8.580;2023-11-22T00:02:11;8.30;1.00
46490;DHT22;32204;49.160;8.580;2023-11-22T00:04:37;8.40;1.00
46490;DHT22;32204;49.160;8.580;2023-11-22T00:07:02;8.30;99.90
46490;DHT22;32204;49.160;8.580;2023-11-22T00:09:28;8.30;99.90
46490;DHT22;32204;49.160;8.580;2023-11-22T00:11:53;8.30;99.90
46490;DHT22;32204;49.160;8.580;2023-11-22T00:14:19;8.10;1.00
46490;DHT22;32204;49.160;8.580;2023-11-22T00:16:45;8.10;1.00
46490;DHT22;32204;49.160;8.580;2023-11-22T00:19:11;8.10;1.00
46490;DHT22;32204;49.160;8.580;2023-11-22T00:21:37;8.10;1.00
46490;DHT22;32204;49.160;8.580;2023-11-22T00:24:02;8.00;1.00
46490;DHT22;32204;49.160;8.580;2023-11-22T00:26:28;7.90;1.00
46490;DHT22;32204;49.160;8.580;2023-11-22T00:28:54;7.90;18.10
46490;DHT22;32204;49.160;8.580;2023-11-22T00:31:19;7.80;1.00
46490;DHT22;32204;49.160;8.580;2023-11-22T00:33:45;7.70;35.90
46490;DHT22;32204;49.160;8.580;2023-11-22T00:36:11;7.80;99.90
46490;DHT22;32204;49.160;8.580;2023-11-22T00:38:37;7.70;99.90
46490;DHT22;32204;49.160;8.580;2023-11-22T00:41:05;7.60;64.30
46490;DHT22;32204;49.160;8.580;2023-11-22T00:43:31;7.70;99.90
46490;DHT22;32204;49.160;8.580;2023-11-22T00:45:56;7.70;99.90
46490;DHT22;32204;49.160;8.580;2023-11-22T00:48:22;7.60;50.70
46490;DHT22;32204;49.160;8.580;2023-11-22T00:50:48;7.50;84.90
46490;DHT22;32204;49.160;8.580;2023-11-22T00:53:13;7.40;20.30
46490;DHT22;32204;49.160;8.580;2023-11-22T00:55:40;7.40;99.90
46490;DHT22;32204;49.160;8.580;2023-11-22T00:58:07;7.40;99.90
46490;DHT22;32204;49.160;8.580;2023-11-22T01:00:33;7.40;99.90
46490;DHT22;32204;49.160;8.580;2023-11-22T01:02:58;7.30;99.90
46490;DHT22;32204;49.160;8.580;2023-11-22T01:05:24;7.20;99.90
46490;DHT22;32204;49.160;8.580;2023-11-22T01:07:49;7.20;99.90
46490;DHT22;32204;49.160;8.580;2023-11-22T01:10:15;7.20;99.90
46490;DHT22;32204;49.160;8.580;2023-11-22T01:12:41;7.20;99.90
46490;DHT22;32204;49.160;8.580;2023-11-22T01:15:07;7.10;99.90
46490;DHT22;32204;49.160;8.580;2023-11-22T01:17:34;6.90;99.90
46490;DHT22;32204;49.160;8.580;2023-11-22T01:20:00;6.80;99.90
46490;DHT22;32204;49.160;8.580;2023-11-22T01:22:26;6.60;99.90
46490;DHT22;32204;49.160;8.580;2023-11-22T01:24:53;6.50;1.00
46490;DHT22;32204;49.160;8.580;2023-11-22T01:27:19;6.50;99.90
46490;DHT22;32204;49.160;8.580;2023-11-22T01:29:44;6.40;5.90
46490;DHT22;32204;49.160;8.580;2023-11-22T01:32:10;6.40;1.00
46490;DHT22;32204;49.160;8.580;2023-11-22T01:34:36;6.30;99.90
46490;DHT22;32204;49.160;8.580;2023-11-22T01:37:02;6.10;99.90
46490;DHT22;32204;49.160;8.580;2023-11-22T01:39:28;6.10;99.90
46490;DHT22;32204;49.160;8.580;2023-11-22T01:41:54;6.10;15.80
46490;DHT22;32204;49.160;8.580;2023-11-22T01:44:20;6.00;1.00
46490;DHT22;32204;49.160;8.580;2023-11-22T01:46:45;5.90;1.00
46490;DHT22;32204;49.160;8.580;2023-11-22T01:49:11;5.80;1.00
46490;DHT22;32204;49.160;8.580;2023-11-22T01:51:40;5.70;1.00
46490;DHT22;32204;49.160;8.580;2023-11-22T01:54:08;5.80;99.90
46490;DHT22;32204;49.160;8.580;2023-11-22T01:56:36;5.90;99.90
46490;DHT22;32204;49.160;8.580;2023-11-22T01:59:02;6.00;99.90
46490;DHT22;32204;49.160;8.580;2023-11-22T02:01:29;6.10;1.00
46490;DHT22;32204;49.160;8.580;2023-11-22T02:03:56;6.20;68.10
46490;DHT22;32204;49.160;8.580;2023-11-22T02:06:21;6.40;1.00
46490;DHT22;32204;49.160;8.580;2023-11-22T02:08:47;6.40;99.90
46490;DHT22;32204;49.160;8.580;2023-11-22T02:11:17;6.60;1.00
46490;DHT22;32204;49.160;8.580;2023-11-22T02:13:47;6.80;99.90
46490;DHT22;32204;49.160;8.580;2023-11-22T02:16:13;7.00;1.00
46490;DHT22;32204;49.160;8.580;2023-11-22T02:18:39;7.00;1.00
46490;DHT22;32204;49.160;8.580;2023-11-22T02:21:07;7.00;1.00
46490;DHT22;32204;49.160;8.580;2023-11-22T02:23:33;6.80;99.90
46490;DHT22;32204;49.160;8.580;2023-11-22T02:25:58;6.80;1.00
46490;DHT22;32204;49.160;8.580;2023-11-22T02:28:24;6.80;99.90
46490;DHT22;32204;49.160;8.580;2023-11-22T02:30:49;6.90;99.90
46490;DHT22;32204;49.160;8.580;2023-11-22T02:33:15;7.00;99.90
46490;DHT22;32204;49.160;8.580;2023-11-22T02:35:41;7.00;99.90
46490;DHT22;32204;49.160;8.580;2023-11-22T02:38:07;7.10;99.90
46490;DHT22;32204;49.160;8.580;2023-11-22T02:40:33;7.20;26.10
46490;DHT22;32204;49.160;8.580;2023-11-22T02:42:58;7.10;99.90
46490;DHT22;32204;49.160;8.580;2023-11-22T02:45:27;7.10;99.90
46490;DHT22;32204;49.160;8.580;2023-11-22T02:47:53;7.10;1.00
46490;DHT22;32204;49.160;8.580;2023-11-22T02:50:19;7.10;3.00
46490;DHT22;32204;49.160;8.580;2023-11-22T02:52:45;7.10;1.00
46490;DHT22;32204;49.160;8.580;2023-11-22T02:55:11;7.10;99.90
46490;DHT22;32204;49.160;8.580;2023-11-22T02:57:40;6.90;99.90
46490;DHT22;32204;49.160;8.580;2023-11-22T03:00:06;6.90;99.90
46490;DHT22;32204;49.160;8.580;2023-11-22T03:02:33;6.70;99.90
46490;DHT22;32204;49.160;8.580;2023-11-22T03:04:59;6.70;1.00
46490;DHT22;32204;49.160;8.580;2023-11-22T03:07:26;6.70;1.00
46490;DHT22;32204;49.160;8.580;2023-11-22T03:09:51;6.40;5.70
46490;DHT22;32204;49.160;8.580;2023-11-22T03:12:18;6.40;24.70
46490;DHT22;32204;49.160;8.580;2023-11-22T03:14:45;6.30;1.00
46490;DHT22;32204;49.160;8.580;2023-11-22T03:17:11;6.30;99.90
46490;DHT22;32204;49.160;8.580;2023-11-22T03:19:38;6.20;99.90
46490;DHT22;32204;49.160;8.580;2023-11-22T03:22:05;6.30;99.90
46490;DHT22;32204;49.160;8.580;2023-11-22T03:24:32;6.20;1.00
46490;DHT22;32204;49.160;8.580;2023-11-22T03:27:00;6.30;99.90
46490;DHT22;32204;49.160;8.580;2023-11-22T03:29:26;6.30;1.00
46490;DHT22;32204;49.160;8.580;2023-11-22T03:31:53;6.40;1.00
46490;DHT22;32204;49.160;8.580;2023-11-22T03:34:19;6.40;81.40
46490;DHT22;32204;49.160;8.580;2023-11-22T03:36:45;6.50;16.20
46490;DHT22;32204;49.160;8.580;2023-11-22T03:39:10;6.60;1.00
46490;DHT22;32204;49.160;8.580;2023-11-22T03:41:37;6.40;26.60
46490;DHT22;32204;49.160;8.580;2023-11-22T03:44:03;6.10;1.00
46490;DHT22;32204;49.160;8.580;2023-11-22T03:46:30;6.00;99.90
46490;DHT22;32204;49.160;8.580;2023-11-22T03:48:55;5.90;99.90
46490;DHT22;32204;49.160;8.580;2023-11-22T03:51:21;5.90;1.00
46490;DHT22;32204;49.160;8.580;2023-11-22T03:53:46;5.70;72.70
46490;DHT22;32204;49.160;8.580;2023-11-22T03:56:12;5.70;1.00
46490;DHT22;32204;49.160;8.580;2023-11-22T03:58:39;5.50;99.90
46490;DHT22;32204;49.160;8.580;2023-11-22T04:01:05;5.50;99.90
46490;DHT22;32204;49.160;8.580;2023-11-22T04:03:31;5.60;46.00
46490;DHT22;32204;49.160;8.580;2023-11-22T04:05:57;5.60;1.00
46490;DHT22;32204;49.160;8.580;2023-11-22T04:08:23;5.70;1.00
46490;DHT22;32204;49.160;8.580;2023-11-22T04:10:49;5.70;1.00
46490;DHT22;32204;49.160;8.580;2023-11-22T04:13:15;5.70;99.90
46490;DHT22;32204;49.160;8.580;2023-11-22T04:15:40;5.70;99.90
46490;DHT22;32204;49.160;8.580;2023-11-22T04:18:06;5.60;99.90
46490;DHT22;32204;49.160;8.580;2023-11-22T04:20:31;5.50;99.90
46490;DHT22;32204;49.160;8.580;2023-11-22T04:22:58;5.40;99.90
46490;DHT22;32204;49.160;8.580;2023-11-22T04:25:23;5.30;99.90
46490;DHT22;32204;49.160;8.580;2023-11-22T04:27:49;5.10;99.90
46490;DHT22;32204;49.160;8.580;2023-11-22T04:30:15;5.10;1.00
46490;DHT22;32204;49.160;8.580;2023-11-22T04:32:45;5.00;99.90
46490;DHT22;32204;49.160;8.580;2023-11-22T04:35:12;5.00;1.00
46490;DHT22;32204;49.160;8.580;2023-11-22T04:37:38;4.90;99.90
46490;DHT22;32204;49.160;8.580;2023-11-22T04:40:04;4.90;1.00
46490;DHT22;32204;49.160;8.580;2023-11-22T04:42:34;4.90;99.90
46490;DHT22;32204;49.160;8.580;2023-11-22T04:45:01;4.90;99.90
46490;DHT22;32204;49.160;8.580;2023-11-22T04:47:27;4.70;99.90
46490;DHT22;32204;49.160;8.580;2023-11-22T04:49:52;4.60;1.00
46490;DHT22;32204;49.160;8.580;2023-11-22T04:52:18;4.60;14.60
46490;DHT22;32204;49.160;8.580;2023-11-22T04:54:43;4.50;99.90
46490;DHT22;32204;49.160;8.580;2023-11-22T04:57:09;4.40;99.90
46490;DHT22;32204;49.160;8.580;2023-11-22T04:59:35;4.30;1.00
46490;DHT22;32204;49.160;8.580;2023-11-22T05:02:01;4.20;1.00
46490;DHT22;32204;49.160;8.580;2023-11-22T05:04:27;4.20;1.00
46490;DHT22;32204;49.160;8.580;2023-11-22T05:06:54;4.30;99.90
46490;DHT22;32204;49.160;8.580;2023-11-22T05:09:19;4.30;99.90
46490;DHT22;32204;49.160;8.580;2023-11-22T05:11:45;4.20;1.00
46490;DHT22;32204;49.160;8.580;2023-11-22T05:14:11;4.20;99.90
46490;DHT22;32204;49.160;8.580;2023-11-22T05:16:36;4.20;24.80
46490;DHT22;32204;49.160;8.580;2023-11-22T05:19:02;4.10;99.90
46490;DHT22;32204;49.160;8.580;2023-11-22T05:21:28;4.20;99.90
46490;DHT22;32204;49.160;8.580;2023-11-22T05:23:54;4.20;10.20
46490;DHT22;32204;49.160;8.580;2023-11-22T05:26:20;4.10;1.00
46490;DHT22;32204;49.160;8.580;2023-11-22T05:28:47;4.20;1.00
46490;DHT22;32204;49.160;8.580;2023-11-22T05:31:13;4.20;99.90
46490;DHT22;32204;49.160;8.580;2023-11-22T05:33:40;4.10;99.90
46490;DHT22;32204;49.160;8.580;2023-11-22T05:36:06;4.10;99.90
46490;DHT22;32204;49.160;8.580;2023-11-22T05:38:32;4.00;99.90
46490;DHT22;32204;49.160;8.580;2023-11-22T05:41:01;4.00;99.90
46490;DHT22;32204;49.160;8.580;2023-11-22T05:43:27;3.80;1.00
46490;DHT22;32204;49.160;8.580;2023-11-22T05:45:55;3.80;99.90
46490;DHT22;32204;49.160;8.580;2023-11-22T05:48:21;3.90;1.00
46490;DHT22;32204;49.160;8.580;2023-11-22T05:50:47;4.00;1.00
46490;DHT22;32204;49.160;8.580;2023-11-22T05:53:13;4.00;99.90
46490;DHT22;32204;49.160;8.580;2023-11-22T05:55:45;4.00;99.90
46490;DHT22;32204;49.160;8.580;2023-11-22T05:58:13;4.00;1.00
46490;DHT22;32204;49.160;8.580;2023-11-22T06:00:45;3.80;99.90
46490;DHT22;32204;49.160;8.580;2023-11-22T06:03:11;3.80;99.90
46490;DHT22;32204;49.160;8.580;2023-11-22T06:05:38;3.70;99.90
46490;DHT22;32204;49.160;8.580;2023-11-22T06:08:04;3.70;1.00
46490;DHT22;32204;49.160;8.580;2023-11-22T06:10:30;3.60;99.90
46490;DHT22;32204;49.160;8.580;2023-11-22T06:12:55;3.70;29.50
46490;DHT22;32204;49.160;8.580;2023-11-22T06:15:21;3.70;99.90
46490;DHT22;32204;49.160;8.580;2023-11-22T06:17:48;3.80;99.90
46490;DHT22;32204;49.160;8.580;2023-11-22T06:20:16;3.80;99.90
46490;DHT22;32204;49.160;8.580;2023-11-22T06:22:42;3.80;1.00
46490;DHT22;32204;49.160;8.580;2023-11-22T06:25:14;3.80;44.90
46490;DHT22;32204;49.160;8.580;2023-11-22T06:27:40;3.80;99.90
46490;DHT22;32204;49.160;8.580;2023-11-22T06:30:07;3.90;99.90
46490;DHT22;32204;49.160;8.580;2023-11-22T06:32:34;3.90;1.00
46490;DHT22;32204;49.160;8.580;2023-11-22T06:35:00;3.80;1.00
46490;DHT22;32204;49.160;8.580;2023-11-22T06:37:26;3.50;99.90
46490;DHT22;32204;49.160;8.580;2023-11-22T06:39:51;3.40;99.90
46490;DHT22;32204;49.160;8.580;2023-11-22T06:42:17;3.40;99.90
46490;DHT22;32204;49.160;8.580;2023-11-22T06:44:44;3.40;49.90
46490;DHT22;32204;49.160;8.580;2023-11-22T06:47:13;3.50;6.70
46490;DHT22;32204;49.160;8.580;2023-11-22T06:49:38;3.60;1.00
46490;DHT22;32204;49.160;8.580;2023-11-22T06:52:04;3.60;99.90
46490;DHT22;32204;49.160;8.580;2023-11-22T06:54:30;3.70;54.00
46490;DHT22;32204;49.160;8.580;2023-11-22T06:56:56;3.60;1.00
46490;DHT22;32204;49.160;8.580;2023-11-22T06:59:22;3.60;99.90
46490;DHT22;32204;49.160;8.580;2023-11-22T07:01:48;3.70;99.90
46490;DHT22;32204;49.160;8.580;2023-11-22T07:04:14;3.80;1.00
46490;DHT22;32204;49.160;8.580;2023-11-22T07:06:39;3.80;99.90
46490;DHT22;32204;49.160;8.580;2023-11-22T07:09:05;3.70;1.00
46490;DHT22;32204;49.160;8.580;2023-11-22T07:11:34;3.50;1.00
46490;DHT22;32204;49.160;8.580;2023-11-22T07:14:00;3.60;50.50
46490;DHT22;32204;49.160;8.580;2023-11-22T07:16:26;3.60;1.00
46490;DHT22;32204;49.160;8.580;2023-11-22T07:18:51;3.70;99.90
46490;DHT22;32204;49.160;8.580;2023-11-22T07:21:17;3.70;1.00
46490;DHT22;32204;49.160;8.580;2023-11-22T07:23:43;3.70;99.90
46490;DHT22;32204;49.160;8.580;2023-11-22T07:26:10;3.60;99.90
46490;DHT22;32204;49.160;8.580;2023-11-22T07:28:36;3.60;1.00
46490;DHT22;32204;49.160;8.580;2023-11-22T07:31:02;3.60;99.90
46490;DHT22;32204;49.160;8.580;2023-11-22T07:33:31;3.70;1.00
46490;DHT22;32204;49.160;8.580;2023-11-22T07:35:57;3.80;1.00
46490;DHT22;32204;49.160;8.580;2023-11-22T07:38:24;3.90;99.90
46490;DHT22;32204;49.160;8.580;2023-11-22T07:40:50;3.80;1.00
46490;DHT22;32204;49.160;8.580;2023-11-22T07:43:16;3.70;99.90
46490;DHT22;32204;49.160;8.580;2023-11-22T07:45:42;3.70;1.00
46490;DHT22;32204;49.160;8.580;2023-11-22T07:48:10;3.70;99.90
46490;DHT22;32204;49.160;8.580;2023-11-22T07:50:37;3.60;84.90
46490;DHT22;32204;49.160;8.580;2023-11-22T07:53:04;3.50;1.00
46490;DHT22;32204;49.160;8.580;2023-11-22T07:55:30;3.70;1.00
46490;DHT22;32204;49.160;8.580;2023-11-22T07:57:57;3.90;99.90
46490;DHT22;32204;49.160;8.580;2023-11-22T08:00:23;4.00;1.00
46490;DHT22;32204;49.160;8.580;2023-11-22T08:02:49;4.10;99.90
46490;DHT22;32204;49.160;8.580;2023-11-22T08:05:16;4.30;99.90
46490;DHT22;32204;49.160;8.580;2023-11-22T08:07:42;4.30;99.90
46490;DHT22;32204;49.160;8.580;2023-11-22T08:10:10;4.40;99.90
46490;DHT22;32204;49.160;8.580;2023-11-22T08:12:44;4.30;2.70
46490;DHT22;32204;49.160;8.580;2023-11-22T08:15:10;4.30;91.10
46490;DHT22;32204;49.160;8.580;2023-11-22T08:17:38;4.20;78.10
46490;DHT22;32204;49.160;8.580;2023-11-22T08:20:05;4.30;99.90
46490;DHT22;32204;49.160;8.580;2023-11-22T08:22:32;4.30;1.00
46490;DHT22;32204;49.160;8.580;2023-11-22T08:25:03;4.30;1.00
46490;DHT22;32204;49.160;8.580;2023-11-22T08:27:29;4.50;99.90
46490;DHT22;32204;49.160;8.580;2023-11-22T08:29:59;4.50;99.90
46490;DHT22;32204;49.160;8.580;2023-11-22T08:32:26;4.70;1.00
46490;DHT22;32204;49.160;8.580;2023-11-22T08:34:56;4.60;99.90
46490;DHT22;32204;49.160;8.580;2023-11-22T08:37:22;4.50;99.90
46490;DHT22;32204;49.160;8.580;2023-11-22T08:39:47;4.50;46.30
46490;DHT22;32204;49.160;8.580;2023-11-22T08:42:14;4.40;99.90
46490;DHT22;32204;49.160;8.580;2023-11-22T08:44:40;4.20;99.90
46490;DHT22;32204;49.160;8.580;2023-11-22T08:47:06;4.20;99.90
46490;DHT22;32204;49.160;8.580;2023-11-22T08:49:33;4.30;1.00
46490;DHT22;32204;49.160;8.580;2023-11-22T08:51:58;4.40;99.90
46490;DHT22;32204;49.160;8.580;2023-11-22T08:54:28;4.60;99.90
46490;DHT22;32204;49.160;8.580;2023-11-22T08:56:57;4.60;1.00
46490;DHT22;32204;49.160;8.580;2023-11-22T08:59:23;4.60;1.00
46490;DHT22;32204;49.160;8.580;2023-11-22T09:01:48;4.30;1.00
46490;DHT22;32204;49.160;8.580;2023-11-22T09:04:14;4.30;99.90
46490;DHT22;32204;49.160;8.580;2023-11-22T09:06:41;4.30;99.90
46490;DHT22;32204;49.160;8.580;2023-11-22T09:09:07;4.10;99.90
46490;DHT22;32204;49.160;8.580;2023-11-22T09:11:33;4.10;99.90
46490;DHT22;32204;49.160;8.580;2023-11-22T09:14:00;4.30;1.00
46490;DHT22;32204;49.160;8.580;2023-11-22T09:16:35;4.30;99.90
46490;DHT22;32204;49.160;8.580;2023-11-22T09:19:01;4.40;99.90
46490;DHT22;32204;49.160;8.580;2023-11-22T09:21:28;4.60;1.00
46490;DHT22;32204;49.160;8.580;2023-11-22T09:23:53;4.60;7.00
46490;DHT22;32204;49.160;8.580;2023-11-22T09:26:19;4.60;75.80
46490;DHT22;32204;49.160;8.580;2023-11-22T09:28:45;4.60;99.90
46490;DHT22;32204;49.160;8.580;2023-11-22T09:31:11;4.80;99.90
46490;DHT22;32204;49.160;8.580;2023-11-22T09:33:43;4.90;1.00
46490;DHT22;32204;49.160;8.580;2023-11-22T09:36:09;5.20;1.00
46490;DHT22;32204;49.160;8.580;2023-11-22T09:38:36;5.30;1.00
46490;DHT22;32204;49.160;8.580;2023-11-22T09:41:03;5.40;99.90
46490;DHT22;32204;49.160;8.580;2023-11-22T09:43:28;5.40;99.90
46490;DHT22;32204;49.160;8.580;2023-11-22T09:45:54;5.30;99.90
46490;DHT22;32204;49.160;8.580;2023-11-22T09:48:21;5.40;1.00
46490;DHT22;32204;49.160;8.580;2023-11-22T09:53:36;5.10;99.90
46490;DHT22;32204;49.160;8.580;2023-11-22T09:56:03;4.90;99.90
46490;DHT22;32204;49.160;8.580;2023-11-22T09:58:30;4.90;99.90
46490;DHT22;32204;49.160;8.580;2023-11-22T10:00:59;4.90;1.00
46490;DHT22;32204;49.160;8.580;2023-11-22T10:03:26;5.10;1.00
46490;DHT22;32204;49.160;8.580;2023-11-22T10:05:54;5.30;1.00
46490;DHT22;32204;49.160;8.580;2023-11-22T10:08:21;5.30;99.90
46490;DHT22;32204;49.160;8.580;2023-11-22T10:10:49;5.10;1.00
46490;DHT22;32204;49.160;8.580;2023-11-22T10:13:21;5.20;1.00
46490;DHT22;32204;49.160;8.580;2023-11-22T10:15:49;5.30;1.00
46490;DHT22;32204;49.160;8.580;2023-11-22T10:18:15;5.20;99.90
46490;DHT22;32204;49.160;8.580;2023-11-22T10:20:43;5.00;1.00
46490;DHT22;32204;49.160;8.580;2023-11-22T10:23:13;4.90;99.90
46490;DHT22;32204;49.160;8.580;2023-11-22T10:25:47;4.90;99.90
46490;DHT22;32204;49.160;8.580;2023-11-22T10:28:15;5.10;99.90
46490;DHT22;32204;49.160;8.580;2023-11-22T10:30:43;5.10;1.00
46490;DHT22;32204;49.160;8.580;2023-11-22T10:33:10;5.10;99.90
46490;DHT22;32204;49.160;8.580;2023-11-22T10:35:43;5.10;49.40
46490;DHT22;32204;49.160;8.580;2023-11-22T10:38:09;5.20;99.90
46490;DHT22;32204;49.160;8.580;2023-11-22T10:40:36;5.40;99.90
46490;DHT22;32204;49.160;8.580;2023-11-22T10:43:03;5.50;99.90
46490;DHT22;32204;49.160;8.580;2023-11-22T10:45:30;5.50;99.90
46490;DHT22;32204;49.160;8.580;2023-11-22T10:48:00;5.60;92.90
46490;DHT22;32204;49.160;8.580;2023-11-22T10:50:26;5.80;3.70
46490;DHT22;32204;49.160;8.580;2023-11-22T10:52:58;5.90;1.00
46490;DHT22;32204;49.160;8.580;2023-11-22T10:55:31;6.10;1.00
46490;DHT22;32204;49.160;8.580;2023-11-22T10:58:02;6.10;1.00
46490;DHT22;32204;49.160;8.580;2023-11-22T11:00:30;6.20;1.00
46490;DHT22;32204;49.160;8.580;2023-11-22T11:03:06;6.30;1.00
46490;DHT22;32204;49.160;8.580;2023-11-22T11:05:35;6.40;1.00
46490;DHT22;32204;49.160;8.580;2023-11-22T11:08:11;6.40;1.00
46490;DHT22;32204;49.160;8.580;2023-11-22T11:10:41;6.20;1.00
46490;DHT22;32204;49.160;8.580;2023-11-22T11:13:08;6.20;1.00
46490;DHT22;32204;49.160;8.580;2023-11-22T11:15:37;6.00;1.00
46490;DHT22;32204;49.160;8.580;2023-11-22T11:18:06;6.00;1.00
46490;DHT22;32204;49.160;8.580;2023-11-22T11:20:54;6.00;1.00
46490;DHT22;32204;49.160;8.580;2023-11-22T11:23:21;5.70;1.00
46490;DHT22;32204;49.160;8.580;2023-11-22T11:25:54;5.70;1.00
46490;DHT22;32204;49.160;8.580;2023-11-22T11:28:20;5.70;1.00
46490;DHT22;32204;49.160;8.580;2023-11-22T11:30:47;5.80;99.90
46490;DHT22;32204;49.160;8.580;2023-11-22T11:33:15;5.90;23.90
46490;DHT22;32204;49.160;8.580;2023-11-22T11:35:49;6.10;44.50
46490;DHT22;32204;49.160;8.580;2023-11-22T11:38:18;6.10;1.00
46490;DHT22;32204;49.160;8.580;2023-11-22T11:40:52;6.00;1.00
46490;DHT22;32204;49.160;8.580;2023-11-22T11:43:48;5.50;1.00
46490;DHT22;32204;49.160;8.580;2023-11-22T11:46:15;5.40;1.00
46490;DHT22;32204;49.160;8.580;2023-11-22T11:48:47;5.30;1.00
46490;DHT22;32204;49.160;8.580;2023-11-22T11:51:14;5.40;1.00
46490;DHT22;32204;49.160;8.580;2023-11-22T11:53:41;5.50;1.00
46490;DHT22;32204;49.160;8.580;2023-11-22T11:56:07;5.70;1.00
46490;DHT22;32204;49.160;8.580;2023-11-22T11:58:33;5.80;17.60
46490;DHT22;32204;49.160;8.580;2023-11-22T12:01:01;6.00;44.40
46490;DHT22;32204;49.160;8.580;2023-11-22T12:03:28;6.20;1.00
46490;DHT22;32204;49.160;8.580;2023-11-22T12:05:54;6.40;1.00
46490;DHT22;32204;49.160;8.580;2023-11-22T12:08:20;6.40;1.00
46490;DHT22;32204;49.160;8.580;2023-11-22T12:10:45;6.30;1.00
46490;DHT22;32204;49.160;8.580;2023-11-22T12:13:18;6.30;99.90
46490;DHT22;32204;49.160;8.580;2023-11-22T12:15:52;6.40;1.00
46490;DHT22;32204;49.160;8.580;2023-11-22T12:18:22;6.50;1.00
46490;DHT22;32204;49.160;8.580;2023-11-22T12:20:59;6.50;1.00
46490;DHT22;32204;49.160;8.580;2023-11-22T12:23:25;6.60;1.00
46490;DHT22;32204;49.160;8.580;2023-11-22T12:25:56;6.60;1.00
46490;DHT22;32204;49.160;8.580;2023-11-22T12:28:23;6.30;1.00
46490;DHT22;32204;49.160;8.580;2023-11-22T12:30:50;6.30;1.00
46490;DHT22;32204;49.160;8.580;2023-11-22T12:33:19;6.20;1.00
46490;DHT22;32204;49.160;8.580;2023-11-22T12:35:46;6.20;1.00
46490;DHT22;32204;49.160;8.580;2023-11-22T12:38:12;6.20;1.00
46490;DHT22;32204;49.160;8.580;2023-11-22T12:40:43;6.10;1.00
46490;DHT22;32204;49.160;8.580;2023-11-22T12:43:09;6.20;1.00
46490;DHT22;32204;49.160;8.580;2023-11-22T12:45:38;6.20;1.00
46490;DHT22;32204;49.160;8.580;2023-11-22T12:48:25;6.10;99.90
46490;DHT22;32204;49.160;8.580;2023-11-22T12:50:51;6.20;1.00
46490;DHT22;32204;49.160;8.580;2023-11-22T12:53:18;6.20;1.00
46490;DHT22;32204;49.160;8.580;2023-11-22T12:55:48;6.10;1.00
46490;DHT22;32204;49.160;8.580;2023-11-22T12:58:15;6.10;99.90
46490;DHT22;32204;49.160;8.580;2023-11-22T13:00:40;6.30;1.00
46490;DHT22;32204;49.160;8.580;2023-11-22T13:03:07;6.30;1.00
46490;DHT22;32204;49.160;8.580;2023-11-22T13:05:36;6.30;1.00
46490;DHT22;32204;49.160;8.580;2023-11-22T13:08:01;6.40;1.00
46490;DHT22;32204;49.160;8.580;2023-11-22T13:10:29;6.40;1.00
46490;DHT22;32204;49.160;8.580;2023-11-22T13:12:54;6.30;99.90
46490;DHT22;32204;49.160;8.580;2023-11-22T13:15:23;6.30;1.00
46490;DHT22;32204;49.160;8.580;2023-11-22T13:17:49;6.30;1.00
46490;DHT22;32204;49.160;8.580;2023-11-22T13:20:15;6.30;1.00
46490;DHT22;32204;49.160;8.580;2023-11-22T13:22:41;6.30;99.90
46490;DHT22;32204;49.160;8.580;2023-11-22T13:25:08;6.40;1.00
46490;DHT22;32204;49.160;8.580;2023-11-22T13:27:36;6.50;99.90
46490;DHT22;32204;49.160;8.580;2023-11-22T13:30:02;6.40;99.90
46490;DHT22;32204;49.160;8.580;2023-11-22T13:32:28;6.40;99.90
46490;DHT22;32204;49.160;8.580;2023-11-22T13:34:54;6.50;99.90
46490;DHT22;32204;49.160;8.580;2023-11-22T13:37:25;6.50;99.90
46490;DHT22;32204;49.160;8.580;2023-11-22T13:39:50;6.40;99.90
46490;DHT22;32204;49.160;8.580;2023-11-22T13:42:19;6.30;99.90
46490;DHT22;32204;49.160;8.580;2023-11-22T13:44:45;6.40;99.90
46490;DHT22;32204;49.160;8.580;2023-11-22T13:47:14;6.50;99.90
46490;DHT22;32204;49.160;8.580;2023-11-22T13:49:40;6.50;99.90
46490;DHT22;32204;49.160;8.580;2023-11-22T13:52:07;6.40;99.90
46490;DHT22;32204;49.160;8.580;2023-11-22T13:54:33;6.50;99.90
46490;DHT22;32204;49.160;8.580;2023-11-22T13:57:02;6.50;1.00
46490;DHT22;32204;49.160;8.580;2023-11-22T13:59:29;6.40;99.90
46490;DHT22;32204;49.160;8.580;2023-11-22T14:01:54;6.30;99.90
46490;DHT22;32204;49.160;8.580;2023-11-22T14:04:20;6.20;99.90
46490;DHT22;32204;49.160;8.580;2023-11-22T14:06:46;6.10;99.90
46490;DHT22;32204;49.160;8.580;2023-11-22T14:09:11;6.20;1.00
46490;DHT22;32204;49.160;8.580;2023-11-22T14:11:39;6.30;99.90
46490;DHT22;32204;49.160;8.580;2023-11-22T14:14:05;6.40;99.90
46490;DHT22;32204;49.160;8.580;2023-11-22T14:16:31;6.40;99.90
46490;DHT22;32204;49.160;8.580;2023-11-22T14:18:56;6.50;99.90
46490;DHT22;32204;49.160;8.580;2023-11-22T14:21:23;6.50;99.90
46490;DHT22;32204;49.160;8.580;2023-11-22T14:23:50;6.30;99.90
46490;DHT22;32204;49.160;8.580;2023-11-22T14:26:16;6.20;99.90
46490;DHT22;32204;49.160;8.580;2023-11-22T14:28:41;6.10;99.90
46490;DHT22;32204;49.160;8.580;2023-11-22T14:31:09;6.30;99.90
46490;DHT22;32204;49.160;8.580;2023-11-22T14:33:34;6.40;99.90
46490;DHT22;32204;49.160;8.580;2023-11-22T14:36:00;6.50;99.90
46490;DHT22;32204;49.160;8.580;2023-11-22T14:38:26;6.50;99.90
46490;DHT22;32204;49.160;8.580;2023-11-22T14:40:52;6.60;99.90
46490;DHT22;32204;49.160;8.580;2023-11-22T14:43:18;6.40;99.90
46490;DHT22;32204;49.160;8.580;2023-11-22T14:45:43;6.40;99.90
46490;DHT22;32204;49.160;8.580;2023-11-22T14:48:09;6.40;99.90
46490;DHT22;32204;49.160;8.580;2023-11-22T14:50:38;6.30;99.90
46490;DHT22;32204;49.160;8.580;2023-11-22T14:53:06;6.30;99.90
46490;DHT22;32204;49.160;8.580;2023-11-22T14:55:33;6.30;99.90
46490;DHT22;32204;49.160;8.580;2023-11-22T14:58:03;6.20;99.90
46490;DHT22;32204;49.160;8.580;2023-11-22T15:00:30;6.10;99.90
46490;DHT22;32204;49.160;8.580;2023-11-22T15:02:56;6.20;99.90
46490;DHT22;32204;49.160;8.580;2023-11-22T15:05:21;6.20;99.90
46490;DHT22;32204;49.160;8.580;2023-11-22T15:07:47;6.20;99.90
46490;DHT22;32204;49.160;8.580;2023-11-22T15:10:20;6.00;99.90
46490;DHT22;32204;49.160;8.580;2023-11-22T15:12:46;6.00;99.90
46490;DHT22;32204;49.160;8.580;2023-11-22T15:15:12;6.00;99.90
46490;DHT22;32204;49.160;8.580;2023-11-22T15:17:38;6.00;99.90
46490;DHT22;32204;49.160;8.580;2023-11-22T15:20:05;6.00;99.90
46490;DHT22;32204;49.160;8.580;2023-11-22T15:22:34;6.20;99.90
46490;DHT22;32204;49.160;8.580;2023-11-22T15:25:00;6.40;99.90
46490;DHT22;32204;49.160;8.580;2023-11-22T15:27:26;6.40;99.90
46490;DHT22;32204;49.160;8.580;2023-11-22T15:29:51;6.50;99.90
46490;DHT22;32204;49.160;8.580;2023-11-22T15:32:17;6.50;99.90
46490;DHT22;32204;49.160;8.580;2023-11-22T15:34:42;6.50;99.90
46490;DHT22;32204;49.160;8.580;2023-11-22T15:37:08;6.40;99.90
46490;DHT22;32204;49.160;8.580;2023-11-22T15:39:36;6.40;99.90
46490;DHT22;32204;49.160;8.580;2023-11-22T15:42:02;6.50;99.90
46490;DHT22;32204;49.160;8.580;2023-11-22T15:44:31;6.50;99.90
46490;DHT22;32204;49.160;8.580;2023-11-22T15:46:57;6.60;99.90
46490;DHT22;32204;49.160;8.580;2023-11-22T15:49:22;6.50;99.90
46490;DHT22;32204;49.160;8.580;2023-11-22T15:51:48;6.40;99.90
46490;DHT22;32204;49.160;8.580;2023-11-22T15:54:13;6.40;99.90